Time;durP1;ratioP1;P1;durP2;ratioP2;P2;SDS_P1;SDS_P2;PMS_P1;PMS_P2;Temp;Humidity;BMP_temperature;BMP_pressure;BME280_temperature;BME280_humidity;BME280_pressure;Samples;Min_cycle;Max_cycle;Signal;HPM_P1;HPM_P2
2023/05/04 00:02:24;;;;;;;3.30;2.30;;;;;;;10.79;54.44;97652.45;110092;1241;59837;-72
2023/05/04 00:04:57;;;;;;;4.50;2.70;;;;;;;10.79;54.30;97650.85;110110;1243;70688;-73
2023/05/04 00:07:28;;;;;;;3.20;2.30;;;;;;;10.81;54.31;97650.91;110118;1245;69406;-73
2023/05/04 00:10:00;;;;;;;4.90;2.20;;;;;;;10.84;54.49;97649.67;110101;1243;69146;-73
2023/05/04 00:12:32;;;;;;;2.70;2.10;;;;;;;10.87;54.73;97652.24;110126;1243;59629;-73
2023/05/04 00:15:06;;;;;;;4.60;2.30;;;;;;;10.91;54.62;97647.04;110104;1245;59682;-73
2023/05/04 00:17:38;;;;;;;3.30;2.00;;;;;;;10.96;54.72;97639.19;110166;1243;71068;-73
2023/05/04 00:20:12;;;;;;;5.20;2.50;;;;;;;11.01;54.37;97630.11;110148;1241;68685;-73
2023/05/04 00:22:43;;;;;;;4.00;2.10;;;;;;;11.06;55.31;97630.30;110124;1246;69181;-73
2023/05/04 00:25:14;;;;;;;5.10;2.50;;;;;;;11.09;55.82;97627.81;110150;1242;59747;-73
2023/05/04 00:27:44;;;;;;;2.60;1.80;;;;;;;11.13;56.00;97623.00;110095;1245;59668;-73
2023/05/04 00:30:16;;;;;;;3.90;2.20;;;;;;;11.16;56.10;97618.04;110138;1242;70856;-73
2023/05/04 00:32:47;;;;;;;3.20;2.10;;;;;;;11.21;55.94;97620.87;110157;1245;69244;-73
2023/05/04 00:35:19;;;;;;;2.50;1.90;;;;;;;11.26;55.72;97628.02;110155;1246;68620;-73
2023/05/04 00:37:52;;;;;;;4.10;2.20;;;;;;;11.31;56.25;97627.48;110126;1242;59754;-73
2023/05/04 00:40:23;;;;;;;4.50;2.30;;;;;;;11.36;56.51;97624.11;110149;1241;59687;-73
2023/05/04 00:42:55;;;;;;;3.10;2.10;;;;;;;11.41;56.14;97621.16;110174;1241;71381;-73
2023/05/04 00:45:27;;;;;;;5.30;2.60;;;;;;;11.45;55.83;97618.94;110143;1241;68379;-73
2023/05/04 00:47:58;;;;;;;2.90;2.50;;;;;;;11.48;56.74;97615.94;109785;1246;68371;-73
2023/05/04 00:50:29;;;;;;;2.80;2.50;;;;;;;11.51;57.32;97615.71;110081;1246;59678;-73
2023/05/04 00:53:08;;;;;;;3.80;2.20;;;;;;;11.54;56.58;97608.89;110117;1243;59722;-73
2023/05/04 00:55:42;;;;;;;3.70;2.40;;;;;;;11.55;56.16;97606.33;110144;1246;70475;-73
2023/05/04 00:58:14;;;;;;;4.00;2.70;;;;;;;11.54;55.96;97602.94;110162;1246;69231;-73
2023/05/04 01:00:45;;;;;;;4.60;2.50;;;;;;;11.53;56.21;97600.04;110132;1245;69717;-73
2023/05/04 01:03:19;;;;;;;4.10;2.90;;;;;;;11.51;56.21;97598.95;110126;1245;59718;-73
2023/05/04 01:06:15;;;;;;;4.70;2.60;;;;;;;11.51;56.67;97596.91;110126;1246;59666;-73
2023/05/04 01:08:54;;;;;;;;;;;;;;;11.48;58.05;97591.52;110205;1242;70422;-74
2023/05/04 01:11:43;;;;;;;3.10;2.20;;;;;;;11.47;58.62;97591.59;110126;1244;69270;-74
2023/05/04 01:14:14;;;;;;;3.80;2.70;;;;;;;11.48;59.46;97591.98;110056;1241;69150;-74
2023/05/04 01:16:56;;;;;;;3.30;2.30;;;;;;;11.48;59.19;97590.76;110131;1245;59702;-74
2023/05/04 01:19:29;;;;;;;2.30;1.90;;;;;;;11.48;59.38;97591.33;110122;1248;59754;-74
2023/05/04 01:22:06;;;;;;;5.50;3.30;;;;;;;11.44;62.56;97595.30;110118;1244;71441;-73
2023/05/04 01:24:44;;;;;;;4.40;2.80;;;;;;;11.37;62.24;97603.33;110120;1246;68485;-74
2023/05/04 01:27:28;;;;;;;3.50;2.80;;;;;;;11.31;62.58;97609.14;110130;1244;69107;-75
2023/05/04 01:30:22;;;;;;;4.40;2.70;;;;;;;11.30;60.65;97613.59;110121;1245;60156;-73
2023/05/04 01:32:59;;;;;;;4.90;3.00;;;;;;;11.24;63.60;97618.53;110122;1243;60091;-75
2023/05/04 01:35:36;;;;;;;4.30;3.00;;;;;;;11.10;62.64;97617.59;110099;1246;71243;-74
2023/05/04 01:38:08;;;;;;;4.00;2.60;;;;;;;10.98;63.11;97612.56;110146;1245;69225;-75
2023/05/04 01:40:38;;;;;;;3.80;2.60;;;;;;;10.93;63.45;97612.40;110122;1245;68827;-75
2023/05/04 01:43:15;;;;;;;3.80;2.50;;;;;;;10.92;63.02;97613.68;110127;1244;59732;-75
2023/05/04 01:45:50;;;;;;;2.80;2.10;;;;;;;10.93;62.18;97610.64;110178;1243;59737;-75
2023/05/04 01:48:25;;;;;;;3.60;2.70;;;;;;;10.95;63.52;97606.51;110131;1246;70846;-73
2023/05/04 01:51:00;;;;;;;3.20;2.60;;;;;;;10.97;63.54;97598.02;110146;1241;67471;-74
2023/05/04 01:53:33;;;;;;;4.30;2.50;;;;;;;10.97;63.71;97595.02;110168;1241;67695;-75
2023/05/04 01:56:06;;;;;;;4.00;2.80;;;;;;;10.99;64.20;97594.38;110105;1241;59683;-75
2023/05/04 01:58:38;;;;;;;3.90;2.10;;;;;;;11.01;62.25;97591.81;110162;1243;59638;-75
2023/05/04 02:01:11;;;;;;;3.10;2.40;;;;;;;11.04;61.93;97595.06;110130;1241;71411;-73
2023/05/04 02:03:46;;;;;;;3.30;2.60;;;;;;;11.08;63.17;97591.59;110126;1242;69127;-73
2023/05/04 02:06:21;;;;;;;3.20;2.40;;;;;;;11.10;63.73;97585.19;109381;1241;918457;-75
2023/05/04 02:08:55;;;;;;;3.30;2.50;;;;;;;11.11;64.07;97584.45;110104;1247;59718;-73
2023/05/04 02:11:27;;;;;;;3.00;2.50;;;;;;;11.10;65.54;97581.56;110152;1241;59666;-74
2023/05/04 02:14:00;;;;;;;4.20;2.80;;;;;;;11.06;65.16;97579.54;110160;1245;71222;-73
2023/05/04 02:16:35;;;;;;;3.20;2.40;;;;;;;11.04;64.38;97574.98;110124;1241;68301;-73
2023/05/04 02:19:07;;;;;;;4.20;2.90;;;;;;;11.01;64.06;97569.80;110113;1248;69349;-75
2023/05/04 02:21:40;;;;;;;3.40;2.50;;;;;;;11.00;62.96;97569.35;110093;1244;59740;-75
2023/05/04 02:24:13;;;;;;;3.00;2.70;;;;;;;11.01;62.37;97576.11;110157;1241;59737;-74
2023/05/04 02:26:46;;;;;;;3.90;2.70;;;;;;;11.01;60.95;97575.23;110066;1252;71391;-74
2023/05/04 02:29:17;;;;;;;4.00;2.80;;;;;;;10.97;65.09;97571.30;110120;1243;68314;-72
2023/05/04 02:31:50;;;;;;;3.70;3.10;;;;;;;10.90;69.65;97567.08;110136;1241;69696;-75
2023/05/04 02:34:22;;;;;;;3.80;2.80;;;;;;;10.86;69.68;97565.67;110128;1245;59694;-73
2023/05/04 02:36:54;;;;;;;5.20;2.70;;;;;;;10.81;68.30;97567.05;110158;1245;59696;-75
2023/05/04 02:39:27;;;;;;;3.50;2.50;;;;;;;10.79;66.65;97565.63;110112;1245;71407;-73
2023/05/04 02:41:58;;;;;;;4.60;3.10;;;;;;;10.76;66.43;97567.23;110131;1245;69128;-73
2023/05/04 02:44:29;;;;;;;3.60;2.70;;;;;;;10.72;65.96;97566.48;110098;1245;69617;-73
2023/05/04 02:47:02;;;;;;;4.70;3.00;;;;;;;10.70;65.62;97570.09;110163;1246;59708;-74
2023/05/04 02:49:34;;;;;;;4.20;3.00;;;;;;;10.70;67.15;97574.25;110128;1241;59743;-73
2023/05/04 02:52:05;;;;;;;3.00;2.60;;;;;;;10.70;69.50;97578.29;110142;1245;71446;-74
2023/05/04 02:54:37;;;;;;;3.80;2.50;;;;;;;10.69;69.17;97581.52;110144;1245;69236;-74
2023/05/04 02:57:07;;;;;;;3.80;2.80;;;;;;;10.63;69.93;97580.33;110051;1244;68412;-73
2023/05/04 02:59:39;;;;;;;4.30;2.50;;;;;;;10.61;68.95;97577.55;110098;1245;59692;-73
2023/05/04 03:02:12;;;;;;;5.10;3.30;;;;;;;10.60;69.16;97578.31;110081;1245;59745;-73
2023/05/04 03:04:43;;;;;;;4.70;3.00;;;;;;;10.57;69.11;97574.67;110176;1241;70961;-73
2023/05/04 03:07:14;;;;;;;3.40;3.10;;;;;;;10.53;67.83;97574.60;110181;1243;69025;-74
2023/05/04 03:09:47;;;;;;;4.10;2.90;;;;;;;10.52;67.99;97575.22;110163;1245;68403;-73
2023/05/04 03:12:20;;;;;;;5.10;3.00;;;;;;;10.53;68.80;97570.38;110090;1245;59692;-74
2023/05/04 03:14:51;;;;;;;5.30;3.00;;;;;;;10.56;68.17;97571.11;110089;1245;59678;-74
2023/05/04 03:17:23;;;;;;;3.70;2.80;;;;;;;10.59;66.39;97583.96;110122;1241;70620;-74
2023/05/04 03:19:54;;;;;;;5.00;3.20;;;;;;;10.60;65.32;97588.05;110112;1241;69049;-74
2023/05/04 03:22:27;;;;;;;5.30;3.40;;;;;;;10.57;65.46;97594.52;110089;1241;69372;-74
2023/05/04 03:24:58;;;;;;;6.20;4.00;;;;;;;10.52;66.06;97600.48;110100;1245;59734;-74
2023/05/04 03:27:29;;;;;;;4.50;3.60;;;;;;;10.47;66.82;97603.27;110158;1244;59679;-74
2023/05/04 03:30:01;;;;;;;5.40;3.90;;;;;;;10.43;74.26;97607.49;110129;1245;71438;-74
2023/05/04 03:32:32;;;;;;;5.50;3.60;;;;;;;10.42;75.39;97610.54;110083;1245;68120;-74
2023/05/04 03:35:04;;;;;;;4.20;3.70;;;;;;;10.42;75.03;97605.85;110089;1245;68102;-73
2023/05/04 03:37:52;;;;;;;5.90;4.30;;;;;;;10.42;74.56;97602.52;110142;1244;59676;-74
2023/05/04 03:40:23;;;;;;;4.60;3.80;;;;;;;10.41;74.13;97605.20;110059;1245;59710;-74
2023/05/04 03:42:54;;;;;;;5.20;4.00;;;;;;;10.41;72.46;97606.80;110166;1241;71242;-74
2023/05/04 03:45:27;;;;;;;5.80;3.70;;;;;;;10.42;74.28;97607.94;110133;1241;68936;-74
2023/05/04 03:47:58;;;;;;;5.80;3.60;;;;;;;10.44;75.65;97607.80;110067;1245;69446;-74
2023/05/04 03:50:30;;;;;;;5.80;3.90;;;;;;;10.47;74.08;97603.27;110084;1241;59740;-74
2023/05/04 03:53:01;;;;;;;4.20;3.10;;;;;;;10.49;73.00;97607.83;110129;1247;59805;-75
2023/05/04 03:55:31;;;;;;;3.80;2.80;;;;;;;10.51;70.22;97611.68;110103;1245;71799;-73
2023/05/04 03:58:01;;;;;;;4.80;4.10;;;;;;;10.54;69.11;97616.20;110141;1244;69195;-74
2023/05/04 04:00:32;;;;;;;7.60;5.30;;;;;;;10.54;68.99;97620.34;110158;1245;69700;-74
2023/05/04 04:03:06;;;;;;;10.20;6.00;;;;;;;10.54;73.92;97621.27;110108;1245;59748;-74
2023/05/04 04:05:36;;;;;;;12.10;10.10;;;;;;;10.55;75.23;97621.55;110139;1245;59681;-75
2023/05/04 04:08:05;;;;;;;7.40;5.10;;;;;;;10.55;76.67;97620.81;110143;1244;71904;-73
2023/05/04 04:10:35;;;;;;;5.80;4.30;;;;;;;10.56;77.56;97622.86;110146;1246;69727;-76
2023/05/04 04:13:04;;;;;;;;;;;;;;;10.56;78.15;97627.90;110350;1242;69301;-75
2023/05/04 04:15:35;;;;;;;5.70;4.80;;;;;;;10.57;76.48;97630.56;110346;1244;59711;-74
2023/05/04 04:18:05;;;;;;;8.00;5.30;;;;;;;10.59;73.89;97633.45;110443;1243;59695;-74
2023/05/04 04:20:34;;;;;;;9.00;6.80;;;;;;;10.59;73.81;97627.18;110377;1241;70644;-75
2023/05/04 04:23:04;;;;;;;10.30;6.20;;;;;;;10.59;74.72;97618.63;110392;1243;69330;-75
2023/05/04 04:25:33;;;;;;;5.40;3.70;;;;;;;10.57;75.41;97609.33;110327;1244;69806;-75
2023/05/04 04:28:03;;;;;;;4.80;3.50;;;;;;;10.56;73.08;97605.91;110292;1241;59750;-75
2023/05/04 04:30:33;;;;;;;4.50;3.10;;;;;;;10.56;74.70;97614.16;110172;1241;59746;-76
2023/05/04 04:33:03;;;;;;;7.20;5.30;;;;;;;10.56;74.18;97623.36;110282;1241;71690;-75
2023/05/04 04:35:33;;;;;;;7.10;5.30;;;;;;;10.55;73.44;97625.85;110294;1244;69882;-76
2023/05/04 04:38:02;;;;;;;8.30;5.20;;;;;;;10.52;76.33;97629.76;110127;1241;69479;-75
2023/05/04 04:40:32;;;;;;;7.80;5.00;;;;;;;10.51;73.64;97631.75;110161;1244;59753;-75
2023/05/04 04:43:01;;;;;;;12.50;6.10;;;;;;;10.50;74.18;97641.00;110169;1244;59712;-75
2023/05/04 04:45:31;;;;;;;;;;;;;;;10.46;78.21;97644.42;110168;1241;69547;-74
2023/05/04 04:48:02;;;;;;;8.90;5.80;;;;;;;10.42;80.43;97642.81;110138;1241;69241;-74
2023/05/04 04:50:31;;;;;;;6.40;4.60;;;;;;;10.41;82.28;97640.95;110136;1241;68338;-73
2023/05/04 04:53:01;;;;;;;12.60;6.20;;;;;;;10.41;81.42;97640.09;110203;1241;59699;-74
2023/05/04 04:55:30;;;;;;;12.20;5.00;;;;;;;10.42;83.18;97642.05;110198;1242;59731;-74
2023/05/04 04:57:59;;;;;;;7.50;4.60;;;;;;;10.42;82.91;97644.50;110177;1241;72312;-74
2023/05/04 05:00:29;;;;;;;8.30;4.90;;;;;;;10.42;82.44;97647.28;110143;1241;68539;-74
2023/05/04 05:02:58;;;;;;;6.70;5.30;;;;;;;10.43;82.03;97644.27;110118;1243;69291;-75
2023/05/04 05:05:28;;;;;;;10.00;5.80;;;;;;;10.44;83.34;97649.81;110151;1241;59808;-75
2023/05/04 05:07:59;;;;;;;8.00;5.10;;;;;;;10.44;83.71;97655.02;110160;1244;59760;-74
2023/05/04 05:10:29;;;;;;;9.70;6.40;;;;;;;10.44;83.64;97659.87;110107;1245;71860;-74
2023/05/04 05:12:58;;;;;;;;;;;;;;;10.44;83.48;97661.83;110206;1243;69065;-75
2023/05/04 05:15:28;;;;;;;9.20;4.40;;;;;;;10.46;83.01;97667.41;110143;1243;68050;-74
2023/05/04 05:17:57;;;;;;;10.90;5.30;;;;;;;10.49;83.58;97671.78;110140;1244;59690;-74
2023/05/04 05:20:27;;;;;;;6.30;4.60;;;;;;;10.50;83.10;97673.95;110209;1244;59712;-75
2023/05/04 05:22:57;;;;;;;9.30;6.00;;;;;;;10.51;82.89;97674.58;110148;1244;70710;-75
2023/05/04 05:25:27;;;;;;;8.80;6.50;;;;;;;10.53;81.26;97671.11;110200;1241;68534;-75
2023/05/04 05:27:56;;;;;;;7.70;5.90;;;;;;;10.56;80.28;97673.73;110147;1244;68386;-74
2023/05/04 05:30:27;;;;;;;9.40;6.40;;;;;;;10.59;79.60;97675.98;110135;1244;59699;-75
2023/05/04 05:32:56;;;;;;;8.90;5.70;;;;;;;10.63;79.83;97673.93;110182;1245;59688;-75
2023/05/04 05:35:26;;;;;;;5.40;4.40;;;;;;;10.67;80.46;97674.67;110149;1241;72041;-75
2023/05/04 05:37:54;;;;;;;5.50;4.30;;;;;;;10.70;83.41;97678.48;110150;1242;69183;-75
2023/05/04 05:40:24;;;;;;;5.40;4.10;;;;;;;10.74;83.10;97678.45;110143;1241;69198;-74
2023/05/04 05:42:52;;;;;;;6.10;3.90;;;;;;;10.77;80.81;97680.84;110179;1242;59722;-75
2023/05/04 05:45:21;;;;;;;5.80;3.90;;;;;;;10.81;79.76;97685.44;110123;1244;59721;-75
2023/05/04 05:47:50;;;;;;;5.00;3.90;;;;;;;10.86;80.42;97688.58;110181;1244;71218;-75
2023/05/04 05:50:22;;;;;;;4.80;3.60;;;;;;;10.91;79.28;97691.70;110199;1243;68505;-75
2023/05/04 05:52:51;;;;;;;5.20;4.20;;;;;;;10.95;78.29;97693.66;110138;1244;69306;-75
2023/05/04 05:55:20;;;;;;;5.90;4.00;;;;;;;11.01;78.66;97693.11;110137;1244;59738;-75
2023/05/04 05:57:49;;;;;;;7.50;4.10;;;;;;;11.04;78.26;97698.97;110142;1245;59685;-75
2023/05/04 06:00:19;;;;;;;7.60;3.90;;;;;;;11.07;79.10;97704.52;110179;1241;71349;-75
2023/05/04 06:02:48;;;;;;;6.80;3.70;;;;;;;11.10;77.51;97704.34;110201;1244;68389;-75
2023/05/04 06:05:17;;;;;;;4.30;3.20;;;;;;;11.12;76.45;97705.02;110139;1247;69239;-75
2023/05/04 06:07:46;;;;;;;4.60;3.40;;;;;;;11.17;75.36;97707.33;110173;1243;59675;-75
2023/05/04 06:10:17;;;;;;;4.00;3.10;;;;;;;11.21;75.50;97711.36;110196;1241;59669;-75
2023/05/04 06:12:47;;;;;;;3.80;3.20;;;;;;;11.26;75.07;97708.25;110164;1241;70617;-75
2023/05/04 06:15:17;;;;;;;7.50;3.50;;;;;;;11.31;74.58;97712.30;110171;1244;68864;-75
2023/05/04 06:17:47;;;;;;;5.90;3.60;;;;;;;11.35;75.63;97713.55;110149;1241;68307;-75
2023/05/04 06:20:17;;;;;;;5.90;3.80;;;;;;;11.38;76.59;97709.64;110201;1241;59740;-75
2023/05/04 06:22:46;;;;;;;6.30;3.60;;;;;;;11.41;75.81;97708.39;110206;1242;59682;-74
2023/05/04 06:25:15;;;;;;;4.20;3.40;;;;;;;11.43;75.64;97704.56;110132;1244;69842;-75
2023/05/04 06:27:44;;;;;;;4.10;3.40;;;;;;;11.48;75.93;97710.34;110204;1245;69203;-75
2023/05/04 06:30:14;;;;;;;6.90;3.40;;;;;;;11.51;74.85;97716.43;110145;1241;68804;-77
2023/05/04 06:32:44;;;;;;;3.70;3.20;;;;;;;11.54;75.94;97712.02;110183;1241;59750;-76
2023/05/04 06:35:14;;;;;;;4.90;3.30;;;;;;;11.59;76.30;97715.34;110177;1245;59742;-76
2023/05/04 06:37:43;;;;;;;4.40;3.00;;;;;;;11.64;74.36;97716.51;110201;1243;71348;-76
2023/05/04 06:40:14;;;;;;;6.40;4.50;;;;;;;11.69;74.52;97715.80;110211;1244;69231;-75
2023/05/04 06:42:43;;;;;;;5.90;3.90;;;;;;;11.74;74.25;97715.80;110191;1241;69277;-75
2023/05/04 06:45:12;;;;;;;5.00;3.70;;;;;;;11.79;73.96;97715.64;110169;1242;59701;-76
2023/05/04 06:47:41;;;;;;;5.00;3.60;;;;;;;11.84;74.50;97714.22;110226;1243;59679;-75
2023/05/04 06:50:10;;;;;;;5.80;3.80;;;;;;;11.90;74.30;97715.19;110180;1245;71368;-75
2023/05/04 06:52:42;;;;;;;3.70;3.10;;;;;;;11.95;74.16;97713.39;110204;1244;69620;-73
2023/05/04 06:55:12;;;;;;;6.30;3.20;;;;;;;12.00;74.78;97718.11;110167;1244;69089;-74
2023/05/04 06:57:42;;;;;;;4.90;3.10;;;;;;;12.05;73.83;97714.63;110211;1243;60056;-77
2023/05/04 07:00:11;;;;;;;12.00;3.90;;;;;;;12.09;73.36;97712.70;110198;1244;59724;-75
2023/05/04 07:02:40;;;;;;;7.40;3.50;;;;;;;12.13;73.51;97713.50;110190;1243;71381;-75
2023/05/04 07:05:09;;;;;;;4.30;3.00;;;;;;;12.16;73.39;97712.38;110192;1245;69196;-74
2023/05/04 07:07:38;;;;;;;5.20;3.20;;;;;;;12.19;74.22;97713.73;109834;1245;68416;-75
2023/05/04 07:10:09;;;;;;;4.60;3.20;;;;;;;12.22;72.71;97710.86;110130;1244;59675;-75
2023/05/04 07:12:38;;;;;;;5.60;4.60;;;;;;;12.26;71.56;97716.21;110152;1245;59750;-75
2023/05/04 07:15:09;;;;;;;7.40;4.80;;;;;;;12.27;70.87;97717.02;110091;1241;71957;-74
2023/05/04 07:17:39;;;;;;;7.00;5.30;;;;;;;12.25;70.88;97719.42;110176;1243;69781;-74
2023/05/04 07:20:09;;;;;;;7.50;5.90;;;;;;;12.24;73.20;97721.70;110131;1244;68511;-75
2023/05/04 07:22:38;;;;;;;;;;;;;;;12.26;73.13;97726.15;110167;1241;59738;-75
2023/05/04 07:25:08;;;;;;;8.10;6.90;;;;;;;12.25;74.25;97726.38;110170;1241;59753;-75
2023/05/04 07:27:37;;;;;;;9.90;6.80;;;;;;;12.26;72.94;97725.85;110180;1241;71943;-75
2023/05/04 07:30:07;;;;;;;11.40;8.40;;;;;;;12.27;73.56;97731.73;110168;1241;68476;-74
2023/05/04 07:32:36;;;;;;;9.50;8.30;;;;;;;12.26;74.85;97737.52;110140;1243;69251;-75
2023/05/04 07:35:05;;;;;;;7.10;6.40;;;;;;;12.28;75.10;97739.27;110162;1241;59774;-75
2023/05/04 07:37:34;;;;;;;11.10;7.40;;;;;;;12.32;73.50;97739.20;110162;1241;59676;-74
2023/05/04 07:40:06;;;;;;;9.90;7.30;;;;;;;12.35;72.79;97747.15;110060;1241;72209;-75
2023/05/04 07:42:35;;;;;;;10.60;7.90;;;;;;;12.38;72.89;97752.16;110186;1245;69790;-75
2023/05/04 07:45:07;;;;;;;10.50;7.60;;;;;;;12.41;72.32;97753.73;110108;1241;69263;-75
2023/05/04 07:47:36;;;;;;;8.40;6.90;;;;;;;12.44;71.43;97755.18;109851;1245;59802;-74
2023/05/04 07:50:06;;;;;;;8.10;5.90;;;;;;;12.49;70.38;97760.26;110173;1244;59727;-74
2023/05/04 07:52:35;;;;;;;9.10;6.40;;;;;;;12.52;69.85;97763.87;110203;1244;71389;-74
2023/05/04 07:55:05;;;;;;;7.90;5.10;;;;;;;12.55;69.36;97767.65;110149;1244;69728;-74
2023/05/04 07:57:36;;;;;;;6.60;5.00;;;;;;;12.58;68.77;97768.50;110145;1241;69892;-74
2023/05/04 08:00:09;;;;;;;6.10;4.70;;;;;;;12.60;67.70;97772.36;110163;1245;60073;-74
2023/05/04 08:02:41;;;;;;;6.70;4.10;;;;;;;12.62;66.61;97774.85;110124;1243;59685;-74
2023/05/04 08:05:11;;;;;;;6.30;3.50;;;;;;;12.64;65.50;97774.71;110170;1241;71359;-75
2023/05/04 08:07:40;;;;;;;4.70;2.70;;;;;;;12.67;63.39;97775.02;110191;1243;69132;-74
2023/05/04 08:10:09;;;;;;;4.40;2.90;;;;;;;12.68;60.76;97781.36;110159;1244;69291;-74
2023/05/04 08:12:39;;;;;;;4.30;2.70;;;;;;;12.72;60.98;97780.91;110137;1241;59750;-75
2023/05/04 08:15:09;;;;;;;;;;;;;;;12.74;60.35;97781.21;110176;1241;59685;-75
2023/05/04 08:17:39;;;;;;;3.30;2.80;;;;;;;12.80;60.60;97782.73;110122;1243;71372;-75
2023/05/04 08:20:08;;;;;;;;;;;;;;;12.85;60.04;97781.33;110157;1241;68473;-75
2023/05/04 08:22:38;;;;;;;4.50;2.90;;;;;;;12.90;58.88;97783.92;110138;1244;68570;-74
2023/05/04 08:25:08;;;;;;;4.60;2.90;;;;;;;12.98;59.88;97787.46;110108;1251;59737;-74
2023/05/04 08:27:37;;;;;;;4.90;2.80;;;;;;;13.07;59.02;97783.32;110168;1241;59692;-74
2023/05/04 08:30:06;;;;;;;3.50;2.40;;;;;;;13.12;57.06;97782.73;110104;1244;72081;-74
2023/05/04 08:32:36;;;;;;;4.10;2.90;;;;;;;13.17;57.30;97785.34;110143;1244;69142;-74
2023/05/04 08:35:06;;;;;;;6.80;2.70;;;;;;;13.21;57.16;97787.48;110137;1244;68994;-74
2023/05/04 08:37:36;;;;;;;3.70;2.70;;;;;;;13.22;56.16;97786.71;110175;1241;59668;-75
2023/05/04 08:40:06;;;;;;;;;;;;;;;13.24;56.80;97789.00;110205;1243;59742;-74
2023/05/04 08:42:35;;;;;;;6.20;2.40;;;;;;;13.26;57.05;97787.30;110184;1244;71332;-74
2023/05/04 08:45:05;;;;;;;5.50;2.70;;;;;;;13.29;56.36;97787.27;110115;1244;69309;-74
2023/05/04 08:47:35;;;;;;;5.70;2.80;;;;;;;13.30;56.18;97789.95;110126;1241;69289;-74
2023/05/04 08:50:06;;;;;;;6.30;2.70;;;;;;;13.32;56.92;97790.01;110155;1245;59753;-76
2023/05/04 08:52:40;;;;;;;3.40;2.30;;;;;;;13.34;56.70;97791.55;110187;1243;59631;-75
2023/05/04 08:55:11;;;;;;;3.40;2.30;;;;;;;13.34;57.17;97792.43;110180;1245;71470;-75
2023/05/04 08:57:42;;;;;;;5.10;3.00;;;;;;;13.36;57.86;97792.11;110143;1243;69857;-74
2023/05/04 09:00:15;;;;;;;4.40;2.70;;;;;;;13.36;57.91;97794.77;110116;1241;68658;-74
2023/05/04 09:02:45;;;;;;;5.20;3.20;;;;;;;13.29;58.30;97800.86;110135;1242;59763;-74
2023/05/04 09:05:15;;;;;;;4.40;3.20;;;;;;;13.22;58.75;97795.59;110210;1241;59712;-75
2023/05/04 09:07:46;;;;;;;4.90;3.40;;;;;;;13.15;59.88;97804.04;110145;1246;71387;-75
2023/05/04 09:10:15;;;;;;;3.60;2.80;;;;;;;13.08;60.47;97801.23;110173;1244;69833;-74
2023/05/04 09:12:45;;;;;;;6.40;3.30;;;;;;;13.01;61.62;97803.02;110156;1243;69530;-75
2023/05/04 09:15:16;;;;;;;4.00;2.80;;;;;;;12.97;62.16;97798.74;110156;1242;59750;-75
2023/05/04 09:18:02;;;;;;;4.20;3.10;;;;;;;12.95;63.05;97796.96;110134;1244;59628;-73
2023/05/04 09:20:43;;;;;;;4.20;3.00;;;;;;;12.97;62.91;97793.85;110178;1244;71263;-73
2023/05/04 09:23:14;;;;;;;4.40;3.10;;;;;;;13.00;63.10;97795.73;110175;1243;69657;-74
2023/05/04 09:25:52;;;;;;;4.90;3.40;;;;;;;13.06;63.14;97790.74;110117;1242;69050;-73
2023/05/04 09:28:38;;;;;;;5.90;3.80;;;;;;;13.11;63.11;97788.91;110125;1241;60085;-74
2023/05/04 09:31:07;;;;;;;3.80;2.50;;;;;;;13.14;63.26;97787.35;110146;1241;59725;-74
2023/05/04 09:33:36;;;;;;;4.20;2.50;;;;;;;13.16;62.78;97787.66;110126;1242;71228;-74
2023/05/04 09:36:19;;;;;;;5.50;2.40;;;;;;;13.19;62.93;97785.34;110142;1244;68298;-74
2023/05/04 09:38:48;;;;;;;2.50;1.90;;;;;;;13.23;62.86;97788.23;110148;1241;69266;-74
2023/05/04 09:41:18;;;;;;;3.70;2.20;;;;;;;13.27;62.81;97785.64;110094;1244;59796;-74
2023/05/04 09:43:48;;;;;;;2.80;2.10;;;;;;;13.35;62.99;97784.66;110154;1241;59738;-75
2023/05/04 09:46:19;;;;;;;3.60;2.00;;;;;;;13.47;63.10;97783.19;110149;1244;71709;-74
2023/05/04 09:48:55;;;;;;;3.00;2.20;;;;;;;13.63;62.71;97783.65;110120;1244;69249;-75
2023/05/04 09:51:26;;;;;;;4.20;2.20;;;;;;;13.74;62.21;97775.61;110130;1241;68487;-76
2023/05/04 09:54:00;;;;;;;2.60;2.00;;;;;;;13.85;61.86;97777.77;110182;1241;59663;-75
2023/05/04 09:56:40;;;;;;;3.00;1.80;;;;;;;13.90;61.20;97773.64;110132;1241;59692;-75
2023/05/04 09:59:10;;;;;;;;;;;;;;;13.94;61.45;97774.40;110152;1241;71171;-75
2023/05/04 10:01:39;;;;;;;3.00;1.80;;;;;;;14.00;61.68;97769.84;110135;1244;70126;-74
2023/05/04 10:04:13;;;;;;;3.30;2.20;;;;;;;14.12;61.63;97765.94;110161;1241;69090;-75
2023/05/04 10:06:43;;;;;;;1.80;1.50;;;;;;;14.23;61.10;97760.77;110127;1242;59745;-74
2023/05/04 10:09:14;;;;;;;2.60;1.70;;;;;;;14.33;60.69;97758.77;110138;1245;59626;-75
2023/05/04 10:11:43;;;;;;;4.20;2.30;;;;;;;14.45;60.50;97755.66;110168;1245;70821;-73
2023/05/04 10:14:12;;;;;;;2.10;1.70;;;;;;;14.56;60.31;97752.64;110162;1241;68483;-75
2023/05/04 10:17:24;;;;;;;2.30;1.60;;;;;;;14.68;59.76;97750.77;110131;1241;69282;-74
2023/05/04 10:20:29;;;;;;;2.90;1.70;;;;;;;14.73;59.52;97752.08;110176;1241;59805;-75
2023/05/04 10:23:13;;;;;;;4.20;1.80;;;;;;;14.85;59.88;97749.98;110154;1245;59739;-75
2023/05/04 10:25:45;;;;;;;2.30;1.70;;;;;;;14.96;59.24;97745.44;110115;1245;71310;-75
2023/05/04 10:28:32;;;;;;;3.50;1.90;;;;;;;14.96;59.48;97745.75;110295;1241;68740;-75
2023/05/04 10:31:03;;;;;;;3.40;1.60;;;;;;;15.00;58.98;97743.34;110261;1243;69898;-75
2023/05/04 10:33:39;;;;;;;3.00;2.00;;;;;;;15.13;58.97;97743.29;110185;1244;59667;-75
2023/05/04 10:36:09;;;;;;;2.40;1.90;;;;;;;15.21;58.84;97740.58;110171;1244;59686;-73
2023/05/04 10:38:41;;;;;;;3.20;2.00;;;;;;;15.24;58.60;97741.42;110127;1244;71768;-74
2023/05/04 10:41:17;;;;;;;1.60;1.50;;;;;;;15.18;59.00;97738.75;110138;1245;69696;-75
2023/05/04 10:43:52;;;;;;;3.40;1.80;;;;;;;15.33;58.94;97738.19;110114;1241;69696;-74
2023/05/04 10:46:22;;;;;;;2.90;1.80;;;;;;;15.40;60.35;97736.00;110147;1241;59755;-74
2023/05/04 10:48:51;;;;;;;1.70;1.50;;;;;;;15.54;59.37;97735.50;110179;1245;59746;-75
2023/05/04 10:51:24;;;;;;;2.80;1.80;;;;;;;15.58;58.72;97735.28;110181;1244;70917;-75
2023/05/04 10:54:04;;;;;;;3.50;1.70;;;;;;;15.53;58.11;97735.01;110165;1241;68520;-74
2023/05/04 10:56:32;;;;;;;2.50;1.70;;;;;;;15.38;58.38;97733.05;110138;1241;69861;-74
2023/05/04 10:59:11;;;;;;;2.40;1.90;;;;;;;15.28;57.96;97731.80;110103;1243;59715;-73
2023/05/04 11:01:46;;;;;;;3.90;1.90;;;;;;;15.17;58.81;97725.35;110190;1241;59734;-75
2023/05/04 11:04:40;;;;;;;2.70;1.90;;;;;;;15.08;58.97;97725.98;110266;1241;71260;-75
2023/05/04 11:07:17;;;;;;;2.60;1.80;;;;;;;14.97;59.75;97724.64;110131;1245;69793;-75
2023/05/04 11:09:45;;;;;;;2.50;1.60;;;;;;;14.87;59.73;97725.10;110089;1244;69842;-74
2023/05/04 11:12:18;;;;;;;2.90;2.20;;;;;;;14.82;59.23;97727.30;110155;1244;59669;-75
2023/05/04 11:14:51;;;;;;;2.80;1.80;;;;;;;14.76;59.75;97728.83;110192;1244;59698;-75
2023/05/04 11:17:24;;;;;;;1.80;1.50;;;;;;;14.70;60.31;97732.87;110181;1241;70612;-75
2023/05/04 11:19:56;;;;;;;2.90;1.80;;;;;;;14.73;60.37;97732.23;110147;1241;68604;-73
2023/05/04 11:22:25;;;;;;;3.60;1.90;;;;;;;14.74;60.53;97730.38;110133;1244;69844;-73
2023/05/04 11:24:55;;;;;;;;;;;;;;;14.78;60.90;97736.41;110156;1244;59761;-74
2023/05/04 11:27:24;;;;;;;2.60;1.70;;;;;;;14.82;60.62;97733.08;110146;1241;59738;-75
2023/05/04 11:29:59;;;;;;;2.50;1.60;;;;;;;14.84;59.96;97735.08;110264;1244;71358;-74
2023/05/04 11:32:38;;;;;;;3.20;1.60;;;;;;;14.84;60.45;97737.66;110167;1244;69828;-75
2023/05/04 11:35:13;;;;;;;2.80;1.70;;;;;;;14.83;61.10;97741.29;110124;1243;69089;-75
2023/05/04 11:37:43;;;;;;;2.90;1.80;;;;;;;14.76;61.00;97741.17;110130;1241;59684;-75
2023/05/04 11:40:12;;;;;;;;;;;;;;;14.69;61.07;97740.10;110168;1241;59696;-75
2023/05/04 11:42:44;;;;;;;3.30;1.70;;;;;;;14.59;61.84;97744.85;110145;1241;71357;-74
2023/05/04 11:45:22;;;;;;;2.90;1.60;;;;;;;14.55;62.44;97746.23;110150;1244;68078;-74
2023/05/04 11:47:52;;;;;;;2.10;1.60;;;;;;;14.41;63.54;97750.04;110102;1241;69248;-76
2023/05/04 11:50:21;;;;;;;;;;;;;;;14.28;63.84;97751.23;110145;1245;59694;-76